WetterOnline ( http://www.wetteronline.de )

Wetter aktuell Zwickau

Aktuelles Wetter: Gera/Leumnitz (311m)

6-stündlich | Neueste Meldungen
Ortszeit Temperatur Wetter
Sa, 21.04. 20:00 18.2° C wolkenlos
Sa, 21.04. 14:00 21.7° C wolkenlos
Sa, 21.04. 8:00 13.2° C leicht bewölkt
Sa, 21.04. 2:00 13.1° C wolkig
Fr, 20.04. 20:00 24.3° C leicht bewölkt
Fr, 20.04. 14:00 24.8° C leicht bewölkt
Fr, 20.04. 8:00 12.0° C leicht bewölkt
Fr, 20.04. 2:00 12.6° C wolkig
Ortszeit Temperatur Wetter
Sa, 21.04. 21:00 17.0° C wolkenlos
Sa, 21.04. 20:50 17.0° C wolkenlos
Sa, 21.04. 20:40 17.3° C wolkenlos
Sa, 21.04. 20:30 17.5° C fast wolkenlos
Sa, 21.04. 20:20 17.5° C fast wolkenlos
Sa, 21.04. 20:10 17.7° C fast wolkenlos
Sa, 21.04. 20:00 18.2° C wolkenlos
Sa, 21.04. 19:30 19.1° C fast wolkenlos
Sa, 21.04. 19:00 19.7° C fast wolkenlos
Sa, 21.04. 18:30 20.4° C fast wolkenlos
Sa, 21.04. 18:00 20.7° C wolkenlos
Ortszeit Relative Feuchte Sichtweite
Sa, 21.04. 20:00 66% 13 km
Sa, 21.04. 14:00 45% 15 km
Sa, 21.04. 8:00 77% 20 km
Sa, 21.04. 2:00 76% 28 km
Fr, 20.04. 20:00 35% 50 km
Fr, 20.04. 14:00 37% 35 km
Fr, 20.04. 8:00 81% 14 km
Fr, 20.04. 2:00 77% 12 km
Ortszeit Relative Feuchte Sichtweite
Sa, 21.04. 21:00 70% 13 km
Sa, 21.04. 20:50 70% -
Sa, 21.04. 20:40 70% -
Sa, 21.04. 20:30 70% 12 km
Sa, 21.04. 20:20 70% -
Sa, 21.04. 20:10 69% -
Sa, 21.04. 20:00 66% 13 km
Sa, 21.04. 19:30 61% 15 km
Sa, 21.04. 19:00 60% 14 km
Sa, 21.04. 18:30 54% 16 km
Sa, 21.04. 18:00 54% 15 km
Ortszeit Niederschlagsmenge Niederschlagsart
Sa, 21.04. 20:00 0.0 l/m2 in 12 Std. -
Sa, 21.04. 14:00 0.0 l/m2 in 6 Std. -
Sa, 21.04. 8:00 0.0 l/m2 in 12 Std. -
Sa, 21.04. 2:00 0.0 l/m2 in 6 Std. -
Fr, 20.04. 20:00 0.0 l/m2 in 12 Std. -
Fr, 20.04. 14:00 0.0 l/m2 in 6 Std. -
Fr, 20.04. 8:00 0.0 l/m2 in 12 Std. -
Fr, 20.04. 2:00 0.0 l/m2 in 6 Std. -
Ortszeit Niederschlagsmenge Niederschlagsart
Sa, 21.04. 21:00 0.0 l/m2 in 1 Std. -
Sa, 21.04. 20:50 keine Meldung -
Sa, 21.04. 20:40 keine Meldung -
Sa, 21.04. 20:30 0.0 l/m2 in 1 Std. -
Sa, 21.04. 20:20 keine Meldung -
Sa, 21.04. 20:10 keine Meldung -
Sa, 21.04. 20:00 0.0 l/m2 in 1 Std. -
Sa, 21.04. 19:30 0.0 l/m2 in 1 Std. -
Sa, 21.04. 19:00 0.0 l/m2 in 1 Std. -
Sa, 21.04. 18:30 0.0 l/m2 in 1 Std. -
Sa, 21.04. 18:00 0.0 l/m2 in 1 Std. -
Ortszeit Stärke Spitze Richtung
km/h Bft. km/h Grad Sektor
Sa, 21.04. 20:00 9 2 26 40° NO
Sa, 21.04. 14:00 11 2 22 360° N
Sa, 21.04. 8:00 4 1 18 210° SW
Sa, 21.04. 2:00 14 3 18 190° S
Fr, 20.04. 20:00 9 2 24 180° S
Fr, 20.04. 14:00 7 2 25 170° S
Fr, 20.04. 8:00 9 2 15 200° S
Fr, 20.04. 2:00 6 1 22 190° S
Ortszeit Stärke Spitze Richtung
km/h Bft. km/h Grad Sektor
Sa, 21.04. 21:00 9 2 17 10° N
Sa, 21.04. 20:50 9 2 - 10° N
Sa, 21.04. 20:40 9 2 - 10° N
Sa, 21.04. 20:30 7 2 14 40° NO
Sa, 21.04. 20:20 7 2 - 40° NO
Sa, 21.04. 20:10 7 2 - 40° NO
Sa, 21.04. 20:00 9 2 17 40° NO
Sa, 21.04. 19:30 9 2 17 40° NO
Sa, 21.04. 19:00 9 2 20 30° NO
Sa, 21.04. 18:30 11 2 22 30° NO
Sa, 21.04. 18:00 13 3 20 40° NO
Ortszeit Untergrenze Bedeckung Gattung
total tief tief mittel hoch
Sa, 21.04. 20:00 10500 m 0/8 0/8 - - -
Sa, 21.04. 14:00 - 0/8 0/8 - - -
Sa, 21.04. 8:00 10500 m 8/8 0/8 - - -
Sa, 21.04. 2:00 10500 m 8/8 0/8 - - -
Fr, 20.04. 20:00 10500 m 7/8 0/8 - - -
Fr, 20.04. 14:00 9000 m 8/8 0/8 - - -
Fr, 20.04. 8:00 10500 m 7/8 0/8 - - -
Fr, 20.04. 2:00 9000 m 8/8 0/8 - - -
Ortszeit Bedeckungsgrad in Achtel und Wolkenuntergrenze
Sa, 21.04. 21:00 keine Wolken
Sa, 21.04. 20:50 keine Wolken
Sa, 21.04. 20:40 keine Wolken
Sa, 21.04. 20:30 2(10500m)
Sa, 21.04. 20:20 2(10500m)
Sa, 21.04. 20:10 2(10500m)
Sa, 21.04. 20:00 4(10500m)
Sa, 21.04. 19:30 1(2400m)
Sa, 21.04. 19:00 1(2400m)
Sa, 21.04. 18:30 1(2400m)
Sa, 21.04. 18:00 keine Wolken
Ortszeit Luftdruck NN (hPa) Tendenz (hPa in 3 Std.)
Sa, 21.04. 20:00 1019 - 0,5
Sa, 21.04. 14:00 1020 - 0,2
Sa, 21.04. 8:00 1020 + 0,8
Sa, 21.04. 2:00 1020 - 0,8
Fr, 20.04. 20:00 1019 - 1,6
Fr, 20.04. 14:00 1023 - 1,3
Fr, 20.04. 8:00 1027 - 0,1
Fr, 20.04. 2:00 1028 - 0,6
Ortszeit Luftdruck NN (hPa) Tendenz (hPa in 3 Std.)
Sa, 21.04. 21:00 1019 + 0,3
Sa, 21.04. 20:50 1019 keine Meldung
Sa, 21.04. 20:40 1019 keine Meldung
Sa, 21.04. 20:30 1019 - 0,2
Sa, 21.04. 20:20 1019 keine Meldung
Sa, 21.04. 20:10 1019 keine Meldung
Sa, 21.04. 20:00 1019 - 0,5
Sa, 21.04. 19:30 1019 - 0,6
Sa, 21.04. 19:00 1018 - 0,9
Sa, 21.04. 18:30 1018 - 1,1
Sa, 21.04. 18:00 1018 - 1,2
Ortszeit Schneehöhe (cm)
Sa, 21.04. 20:00 -
Sa, 21.04. 14:00 0
Sa, 21.04. 8:00 0
Sa, 21.04. 2:00 0
Fr, 20.04. 20:00 0
Fr, 20.04. 14:00 0
Fr, 20.04. 8:00 0
Fr, 20.04. 2:00 0
Ortszeit Schneehöhe (cm)
Sa, 21.04. 21:00 -
Sa, 21.04. 20:50 -
Sa, 21.04. 20:40 -
Sa, 21.04. 20:30 -
Sa, 21.04. 20:20 -
Sa, 21.04. 20:10 -
Sa, 21.04. 20:00 -
Sa, 21.04. 19:30 -
Sa, 21.04. 19:00 -
Sa, 21.04. 18:30 -
Sa, 21.04. 18:00 -
Link zu dieser Seite / Seite empfehlen

Das Wetter in ...